Terminal Aerodrome Forecast
Issued by NWS

Home | Current Version | Previous Version | Text Only | Print | Product List | Glossary On
Versions: 1 2 3 4 5 6 7 8 9 10 11 12 13 14 15 16 17 18 19 20 21 22 23 24 25 26 27 28 29 30 31 32
000
FTAK31 PANC 270530
TAFAVD
TAF
PAVD 270530Z 2706/2806 VRB03KT P6SM SKC
      TEMPO 2709/2712 08012G25KT
     FM271200 08012G25KT P6SM SKC
     FM280300 08010KT P6SM SKC
      AMD LTD TO CLD VIS AND WIND=

USA.gov is the U.S. government's official web portal to all federal, state and local government web resources and services.